sensor_id;sensor_type;location;lat;lon;timestamp;P1;durP1;ratioP1;P2;durP2;ratioP2
20456;SDS011;10387;51.102;6.848;2023-10-13T04:27:44;17.47;;;13.37;;
20456;SDS011;10387;51.102;6.848;2023-10-13T04:30:36;17.90;;;14.17;;
20456;SDS011;10387;51.102;6.848;2023-10-13T04:33:20;16.43;;;12.97;;
20456;SDS011;10387;51.102;6.848;2023-10-13T04:36:07;21.70;;;13.70;;
20456;SDS011;10387;51.102;6.848;2023-10-13T04:38:47;16.07;;;14.30;;
20456;SDS011;10387;51.102;6.848;2023-10-13T04:41:26;18.77;;;13.73;;
20456;SDS011;10387;51.102;6.848;2023-10-13T04:44:14;17.20;;;14.30;;
20456;SDS011;10387;51.102;6.848;2023-10-13T04:47:00;21.07;;;15.37;;
20456;SDS011;10387;51.102;6.848;2023-10-13T04:49:26;19.53;;;14.67;;
20456;SDS011;10387;51.102;6.848;2023-10-13T04:52:15;20.63;;;13.83;;
20456;SDS011;10387;51.102;6.848;2023-10-13T04:55:01;18.03;;;14.90;;
20456;SDS011;10387;51.102;6.848;2023-10-13T04:57:41;22.27;;;14.70;;
20456;SDS011;10387;51.102;6.848;2023-10-13T05:00:18;18.67;;;14.83;;
20456;SDS011;10387;51.102;6.848;2023-10-13T05:02:46;18.47;;;14.97;;
20456;SDS011;10387;51.102;6.848;2023-10-13T05:05:30;18.23;;;15.53;;
20456;SDS011;10387;51.102;6.848;2023-10-13T05:08:14;17.93;;;14.70;;
20456;SDS011;10387;51.102;6.848;2023-10-13T05:11:03;18.30;;;14.70;;
20456;SDS011;10387;51.102;6.848;2023-10-13T05:13:48;18.30;;;14.37;;
20456;SDS011;10387;51.102;6.848;2023-10-13T05:16:32;19.90;;;14.47;;
20456;SDS011;10387;51.102;6.848;2023-10-13T05:19:17;16.73;;;14.03;;
20456;SDS011;10387;51.102;6.848;2023-10-13T05:22:02;18.70;;;13.70;;
20456;SDS011;10387;51.102;6.848;2023-10-13T05:24:48;18.57;;;13.90;;
20456;SDS011;10387;51.102;6.848;2023-10-13T05:27:34;17.57;;;13.90;;
20456;SDS011;10387;51.102;6.848;2023-10-13T05:30:19;17.50;;;13.07;;
20456;SDS011;10387;51.102;6.848;2023-10-13T05:33:04;16.87;;;13.77;;
20456;SDS011;10387;51.102;6.848;2023-10-13T05:35:48;17.27;;;13.50;;
20456;SDS011;10387;51.102;6.848;2023-10-13T05:38:33;16.77;;;13.30;;
20456;SDS011;10387;51.102;6.848;2023-10-13T05:41:18;18.13;;;14.70;;
20456;SDS011;10387;51.102;6.848;2023-10-13T05:44:03;18.33;;;14.37;;
20456;SDS011;10387;51.102;6.848;2023-10-13T05:46:47;19.90;;;14.10;;
20456;SDS011;10387;51.102;6.848;2023-10-13T05:49:33;16.13;;;13.03;;
20456;SDS011;10387;51.102;6.848;2023-10-13T05:52:15;19.20;;;14.43;;
20456;SDS011;10387;51.102;6.848;2023-10-13T05:54:55;17.97;;;14.10;;
20456;SDS011;10387;51.102;6.848;2023-10-13T05:57:41;17.17;;;13.30;;
20456;SDS011;10387;51.102;6.848;2023-10-13T06:00:26;19.63;;;14.53;;
20456;SDS011;10387;51.102;6.848;2023-10-13T06:03:11;19.57;;;14.87;;
20456;SDS011;10387;51.102;6.848;2023-10-13T06:05:55;18.60;;;14.53;;
20456;SDS011;10387;51.102;6.848;2023-10-13T06:08:41;20.23;;;14.90;;
20456;SDS011;10387;51.102;6.848;2023-10-13T06:11:26;17.67;;;13.87;;
20456;SDS011;10387;51.102;6.848;2023-10-13T06:14:13;20.23;;;13.73;;
20456;SDS011;10387;51.102;6.848;2023-10-13T06:16:58;18.77;;;14.20;;
20456;SDS011;10387;51.102;6.848;2023-10-13T06:19:42;17.47;;;14.20;;
20456;SDS011;10387;51.102;6.848;2023-10-13T06:22:27;19.33;;;14.93;;
20456;SDS011;10387;51.102;6.848;2023-10-13T06:25:12;20.50;;;15.10;;
20456;SDS011;10387;51.102;6.848;2023-10-13T06:27:57;20.10;;;15.57;;
20456;SDS011;10387;51.102;6.848;2023-10-13T06:30:41;19.67;;;15.80;;
20456;SDS011;10387;51.102;6.848;2023-10-13T06:33:12;21.40;;;15.53;;
20456;SDS011;10387;51.102;6.848;2023-10-13T06:35:40;17.63;;;15.00;;
20456;SDS011;10387;51.102;6.848;2023-10-13T06:38:15;21.43;;;15.60;;
20456;SDS011;10387;51.102;6.848;2023-10-13T06:40:46;19.50;;;15.73;;
20456;SDS011;10387;51.102;6.848;2023-10-13T06:43:13;22.03;;;15.47;;
20456;SDS011;10387;51.102;6.848;2023-10-13T06:45:45;20.47;;;14.80;;
20456;SDS011;10387;51.102;6.848;2023-10-13T06:48:27;17.17;;;14.63;;
20456;SDS011;10387;51.102;6.848;2023-10-13T06:50:58;18.10;;;15.30;;
20456;SDS011;10387;51.102;6.848;2023-10-13T06:53:32;20.90;;;15.50;;
20456;SDS011;10387;51.102;6.848;2023-10-13T06:56:05;20.47;;;15.73;;
20456;SDS011;10387;51.102;6.848;2023-10-13T06:58:32;20.43;;;16.03;;
20456;SDS011;10387;51.102;6.848;2023-10-13T07:00:58;21.13;;;15.27;;
20456;SDS011;10387;51.102;6.848;2023-10-13T07:03:24;20.97;;;14.03;;
20456;SDS011;10387;51.102;6.848;2023-10-13T07:05:50;18.80;;;13.73;;
20456;SDS011;10387;51.102;6.848;2023-10-13T07:08:17;19.10;;;13.40;;
20456;SDS011;10387;51.102;6.848;2023-10-13T07:10:53;19.53;;;12.90;;
20456;SDS011;10387;51.102;6.848;2023-10-13T07:13:38;19.50;;;13.53;;
20456;SDS011;10387;51.102;6.848;2023-10-13T07:16:05;20.00;;;13.33;;
20456;SDS011;10387;51.102;6.848;2023-10-13T07:18:37;22.73;;;14.63;;
20456;SDS011;10387;51.102;6.848;2023-10-13T07:21:15;21.23;;;13.77;;
20456;SDS011;10387;51.102;6.848;2023-10-13T07:23:41;24.83;;;14.20;;
20456;SDS011;10387;51.102;6.848;2023-10-13T07:26:21;18.23;;;13.53;;
20456;SDS011;10387;51.102;6.848;2023-10-13T07:28:48;20.83;;;13.93;;
20456;SDS011;10387;51.102;6.848;2023-10-13T07:31:17;18.20;;;13.27;;
20456;SDS011;10387;51.102;6.848;2023-10-13T07:33:46;18.57;;;13.20;;
20456;SDS011;10387;51.102;6.848;2023-10-13T07:36:12;20.77;;;12.73;;
20456;SDS011;10387;51.102;6.848;2023-10-13T07:38:43;16.27;;;12.37;;
20456;SDS011;10387;51.102;6.848;2023-10-13T07:41:13;18.33;;;12.43;;
20456;SDS011;10387;51.102;6.848;2023-10-13T07:43:41;15.23;;;11.13;;
20456;SDS011;10387;51.102;6.848;2023-10-13T07:46:08;13.67;;;11.73;;
20456;SDS011;10387;51.102;6.848;2023-10-13T07:48:38;16.97;;;11.30;;
20456;SDS011;10387;51.102;6.848;2023-10-13T07:51:12;14.13;;;10.97;;
20456;SDS011;10387;51.102;6.848;2023-10-13T07:53:42;15.30;;;10.47;;
20456;SDS011;10387;51.102;6.848;2023-10-13T07:56:11;14.07;;;11.17;;
20456;SDS011;10387;51.102;6.848;2023-10-13T07:58:38;14.70;;;10.83;;
20456;SDS011;10387;51.102;6.848;2023-10-13T08:01:23;14.10;;;10.47;;
20456;SDS011;10387;51.102;6.848;2023-10-13T08:03:50;16.13;;;9.93;;
20456;SDS011;10387;51.102;6.848;2023-10-13T08:06:30;15.13;;;10.37;;
20456;SDS011;10387;51.102;6.848;2023-10-13T08:08:56;17.40;;;10.20;;
20456;SDS011;10387;51.102;6.848;2023-10-13T08:11:45;14.20;;;9.63;;
20456;SDS011;10387;51.102;6.848;2023-10-13T08:14:11;15.97;;;10.40;;
20456;SDS011;10387;51.102;6.848;2023-10-13T08:16:47;20.43;;;9.80;;
20456;SDS011;10387;51.102;6.848;2023-10-13T08:19:17;15.77;;;10.13;;
20456;SDS011;10387;51.102;6.848;2023-10-13T08:21:43;14.27;;;9.87;;
20456;SDS011;10387;51.102;6.848;2023-10-13T08:24:28;14.70;;;9.97;;
20456;SDS011;10387;51.102;6.848;2023-10-13T08:27:17;21.07;;;10.83;;
20456;SDS011;10387;51.102;6.848;2023-10-13T08:30:03;15.83;;;9.70;;
20456;SDS011;10387;51.102;6.848;2023-10-13T08:32:48;13.30;;;9.20;;
20456;SDS011;10387;51.102;6.848;2023-10-13T08:35:20;16.77;;;9.27;;
20456;SDS011;10387;51.102;6.848;2023-10-13T08:37:59;17.07;;;8.90;;
20456;SDS011;10387;51.102;6.848;2023-10-13T08:40:29;17.43;;;9.30;;
20456;SDS011;10387;51.102;6.848;2023-10-13T08:43:12;16.70;;;9.00;;
20456;SDS011;10387;51.102;6.848;2023-10-13T08:45:41;26.63;;;9.33;;
20456;SDS011;10387;51.102;6.848;2023-10-13T08:48:08;20.43;;;9.13;;
20456;SDS011;10387;51.102;6.848;2023-10-13T08:50:43;19.60;;;9.27;;
20456;SDS011;10387;51.102;6.848;2023-10-13T08:53:17;16.73;;;7.60;;
20456;SDS011;10387;51.102;6.848;2023-10-13T08:55:57;13.30;;;8.03;;
20456;SDS011;10387;51.102;6.848;2023-10-13T08:58:40;12.97;;;7.60;;
20456;SDS011;10387;51.102;6.848;2023-10-13T09:01:23;15.33;;;7.13;;
20456;SDS011;10387;51.102;6.848;2023-10-13T09:04:09;16.00;;;7.03;;
20456;SDS011;10387;51.102;6.848;2023-10-13T09:06:51;15.73;;;6.87;;
20456;SDS011;10387;51.102;6.848;2023-10-13T09:09:31;17.43;;;7.80;;
20456;SDS011;10387;51.102;6.848;2023-10-13T09:12:01;17.23;;;7.70;;
20456;SDS011;10387;51.102;6.848;2023-10-13T09:15:03;12.80;;;7.30;;
20456;SDS011;10387;51.102;6.848;2023-10-13T09:17:31;12.47;;;7.13;;
20456;SDS011;10387;51.102;6.848;2023-10-13T09:20:07;10.63;;;6.13;;
20456;SDS011;10387;51.102;6.848;2023-10-13T09:22:53;12.93;;;6.80;;
20456;SDS011;10387;51.102;6.848;2023-10-13T09:25:38;11.37;;;6.77;;
20456;SDS011;10387;51.102;6.848;2023-10-13T09:28:23;10.13;;;6.53;;
20456;SDS011;10387;51.102;6.848;2023-10-13T09:30:53;12.47;;;6.23;;
20456;SDS011;10387;51.102;6.848;2023-10-13T09:33:22;9.83;;;6.27;;
20456;SDS011;10387;51.102;6.848;2023-10-13T09:36:01;9.87;;;6.33;;
20456;SDS011;10387;51.102;6.848;2023-10-13T09:38:32;10.57;;;7.07;;
20456;SDS011;10387;51.102;6.848;2023-10-13T09:40:58;11.43;;;6.70;;
20456;SDS011;10387;51.102;6.848;2023-10-13T09:43:43;11.37;;;6.77;;
20456;SDS011;10387;51.102;6.848;2023-10-13T09:46:09;10.23;;;6.33;;
20456;SDS011;10387;51.102;6.848;2023-10-13T09:48:46;12.40;;;6.70;;
20456;SDS011;10387;51.102;6.848;2023-10-13T09:51:13;15.13;;;7.53;;
20456;SDS011;10387;51.102;6.848;2023-10-13T09:53:47;13.43;;;6.83;;
20456;SDS011;10387;51.102;6.848;2023-10-13T09:56:20;11.10;;;7.03;;
20456;SDS011;10387;51.102;6.848;2023-10-13T09:59:03;13.63;;;7.60;;
20456;SDS011;10387;51.102;6.848;2023-10-13T10:01:34;14.50;;;7.37;;
20456;SDS011;10387;51.102;6.848;2023-10-13T10:04:13;13.90;;;8.07;;
20456;SDS011;10387;51.102;6.848;2023-10-13T10:06:58;9.83;;;6.97;;
20456;SDS011;10387;51.102;6.848;2023-10-13T10:09:26;10.83;;;7.00;;
20456;SDS011;10387;51.102;6.848;2023-10-13T10:17:22;9.70;;;7.50;;
20456;SDS011;10387;51.102;6.848;2023-10-13T10:19:49;11.10;;;7.27;;
20456;SDS011;10387;51.102;6.848;2023-10-13T10:24:58;12.30;;;7.73;;
20456;SDS011;10387;51.102;6.848;2023-10-13T10:27:25;13.47;;;8.30;;
20456;SDS011;10387;51.102;6.848;2023-10-13T10:29:55;10.23;;;8.23;;
20456;SDS011;10387;51.102;6.848;2023-10-13T10:32:31;12.50;;;8.23;;
20456;SDS011;10387;51.102;6.848;2023-10-13T10:35:04;13.17;;;7.90;;
20456;SDS011;10387;51.102;6.848;2023-10-13T10:37:33;12.50;;;7.77;;
20456;SDS011;10387;51.102;6.848;2023-10-13T10:40:00;9.87;;;7.20;;
20456;SDS011;10387;51.102;6.848;2023-10-13T10:42:30;15.03;;;7.97;;
20456;SDS011;10387;51.102;6.848;2023-10-13T10:44:57;11.73;;;7.30;;
20456;SDS011;10387;51.102;6.848;2023-10-13T10:47:30;11.70;;;7.60;;
20456;SDS011;10387;51.102;6.848;2023-10-13T10:49:58;15.03;;;7.27;;
20456;SDS011;10387;51.102;6.848;2023-10-13T10:52:26;12.90;;;7.30;;
20456;SDS011;10387;51.102;6.848;2023-10-13T10:54:59;11.57;;;7.23;;
20456;SDS011;10387;51.102;6.848;2023-10-13T10:57:26;11.97;;;7.37;;
20456;SDS011;10387;51.102;6.848;2023-10-13T11:00:02;11.90;;;7.80;;
20456;SDS011;10387;51.102;6.848;2023-10-13T11:02:39;13.17;;;7.50;;
20456;SDS011;10387;51.102;6.848;2023-10-13T11:05:08;12.73;;;7.10;;
20456;SDS011;10387;51.102;6.848;2023-10-13T11:07:35;11.48;;;7.13;;
20456;SDS011;10387;51.102;6.848;2023-10-13T11:10:08;16.42;;;7.55;;
20456;SDS011;10387;51.102;6.848;2023-10-13T11:12:55;12.00;;;7.27;;
20456;SDS011;10387;51.102;6.848;2023-10-13T11:15:21;14.57;;;8.07;;
20456;SDS011;10387;51.102;6.848;2023-10-13T11:17:48;14.90;;;7.47;;
20456;SDS011;10387;51.102;6.848;2023-10-13T11:20:18;10.17;;;8.23;;
20456;SDS011;10387;51.102;6.848;2023-10-13T11:23:14;14.43;;;7.85;;
20456;SDS011;10387;51.102;6.848;2023-10-13T11:25:41;12.15;;;7.38;;
20456;SDS011;10387;51.102;6.848;2023-10-13T11:30:42;10.88;;;7.35;;
20456;SDS011;10387;51.102;6.848;2023-10-13T11:33:14;12.85;;;7.30;;
20456;SDS011;10387;51.102;6.848;2023-10-13T11:35:43;13.40;;;7.35;;
20456;SDS011;10387;51.102;6.848;2023-10-13T11:38:23;11.02;;;7.47;;
20456;SDS011;10387;51.102;6.848;2023-10-13T11:46:17;13.83;;;7.63;;
20456;SDS011;10387;51.102;6.848;2023-10-13T11:49:07;14.95;;;7.18;;
20456;SDS011;10387;51.102;6.848;2023-10-13T11:51:52;10.15;;;6.80;;
20456;SDS011;10387;51.102;6.848;2023-10-13T11:54:27;13.23;;;7.00;;
20456;SDS011;10387;51.102;6.848;2023-10-13T11:56:53;11.73;;;7.13;;
20456;SDS011;10387;51.102;6.848;2023-10-13T11:59:26;11.55;;;7.50;;
20456;SDS011;10387;51.102;6.848;2023-10-13T12:01:53;10.63;;;6.83;;
20456;SDS011;10387;51.102;6.848;2023-10-13T12:04:38;12.93;;;6.70;;
20456;SDS011;10387;51.102;6.848;2023-10-13T12:07:20;10.03;;;6.73;;
20456;SDS011;10387;51.102;6.848;2023-10-13T12:10:13;12.10;;;6.70;;
20456;SDS011;10387;51.102;6.848;2023-10-13T12:13:02;15.80;;;7.20;;
20456;SDS011;10387;51.102;6.848;2023-10-13T12:15:31;15.13;;;7.23;;
20456;SDS011;10387;51.102;6.848;2023-10-13T12:18:18;9.40;;;6.57;;
20456;SDS011;10387;51.102;6.848;2023-10-13T12:20:45;13.77;;;7.07;;
20456;SDS011;10387;51.102;6.848;2023-10-13T12:23:12;13.60;;;7.00;;
20456;SDS011;10387;51.102;6.848;2023-10-13T12:25:42;14.37;;;6.67;;
20456;SDS011;10387;51.102;6.848;2023-10-13T12:28:24;13.50;;;6.90;;
20456;SDS011;10387;51.102;6.848;2023-10-13T12:30:56;10.20;;;6.53;;
20456;SDS011;10387;51.102;6.848;2023-10-13T12:33:24;11.67;;;7.10;;
20456;SDS011;10387;51.102;6.848;2023-10-13T12:35:55;11.57;;;6.40;;
20456;SDS011;10387;51.102;6.848;2023-10-13T12:38:56;14.80;;;7.33;;
20456;SDS011;10387;51.102;6.848;2023-10-13T12:41:31;11.60;;;6.43;;
20456;SDS011;10387;51.102;6.848;2023-10-13T12:44:16;12.10;;;6.27;;
20456;SDS011;10387;51.102;6.848;2023-10-13T12:47:14;10.87;;;6.43;;
20456;SDS011;10387;51.102;6.848;2023-10-13T12:49:59;12.13;;;6.70;;
20456;SDS011;10387;51.102;6.848;2023-10-13T12:52:32;12.67;;;6.57;;
20456;SDS011;10387;51.102;6.848;2023-10-13T12:54:58;14.40;;;6.50;;
20456;SDS011;10387;51.102;6.848;2023-10-13T12:57:31;16.07;;;6.27;;
20456;SDS011;10387;51.102;6.848;2023-10-13T12:59:57;18.97;;;7.23;;
20456;SDS011;10387;51.102;6.848;2023-10-13T13:02:24;10.70;;;6.37;;
20456;SDS011;10387;51.102;6.848;2023-10-13T13:04:51;14.48;;;6.20;;
20456;SDS011;10387;51.102;6.848;2023-10-13T13:07:22;10.83;;;6.57;;
20456;SDS011;10387;51.102;6.848;2023-10-13T13:09:54;11.73;;;6.53;;
20456;SDS011;10387;51.102;6.848;2023-10-13T13:12:24;10.23;;;6.70;;
20456;SDS011;10387;51.102;6.848;2023-10-13T13:14:50;14.67;;;6.63;;
20456;SDS011;10387;51.102;6.848;2023-10-13T13:17:22;13.27;;;6.83;;
20456;SDS011;10387;51.102;6.848;2023-10-13T13:19:49;12.00;;;6.50;;
20456;SDS011;10387;51.102;6.848;2023-10-13T13:22:15;12.90;;;6.70;;
20456;SDS011;10387;51.102;6.848;2023-10-13T13:24:43;15.77;;;7.43;;
20456;SDS011;10387;51.102;6.848;2023-10-13T13:27:13;11.50;;;7.18;;
20456;SDS011;10387;51.102;6.848;2023-10-13T13:29:43;12.97;;;6.93;;
20456;SDS011;10387;51.102;6.848;2023-10-13T13:32:09;13.17;;;7.07;;
20456;SDS011;10387;51.102;6.848;2023-10-13T13:34:49;13.07;;;6.57;;
20456;SDS011;10387;51.102;6.848;2023-10-13T13:37:32;18.00;;;7.03;;
20456;SDS011;10387;51.102;6.848;2023-10-13T13:39:59;12.77;;;6.77;;
20456;SDS011;10387;51.102;6.848;2023-10-13T13:42:45;16.37;;;6.77;;
20456;SDS011;10387;51.102;6.848;2023-10-13T13:45:14;13.27;;;6.93;;
20456;SDS011;10387;51.102;6.848;2023-10-13T13:47:48;13.43;;;6.50;;
20456;SDS011;10387;51.102;6.848;2023-10-13T13:50:18;12.17;;;6.93;;
20456;SDS011;10387;51.102;6.848;2023-10-13T13:52:50;14.47;;;6.97;;
20456;SDS011;10387;51.102;6.848;2023-10-13T13:55:18;13.03;;;6.47;;
20456;SDS011;10387;51.102;6.848;2023-10-13T13:57:44;13.77;;;6.27;;
20456;SDS011;10387;51.102;6.848;2023-10-13T14:00:11;13.60;;;7.10;;
20456;SDS011;10387;51.102;6.848;2023-10-13T14:02:43;15.17;;;6.57;;
20456;SDS011;10387;51.102;6.848;2023-10-13T14:05:13;15.40;;;6.50;;
20456;SDS011;10387;51.102;6.848;2023-10-13T14:07:44;12.67;;;6.40;;
20456;SDS011;10387;51.102;6.848;2023-10-13T14:10:14;10.73;;;6.93;;
20456;SDS011;10387;51.102;6.848;2023-10-13T14:12:42;12.30;;;6.70;;
20456;SDS011;10387;51.102;6.848;2023-10-13T14:15:09;13.87;;;6.93;;
20456;SDS011;10387;51.102;6.848;2023-10-13T14:17:49;12.77;;;6.90;;
20456;SDS011;10387;51.102;6.848;2023-10-13T14:20:15;16.13;;;6.50;;
20456;SDS011;10387;51.102;6.848;2023-10-13T14:22:44;14.13;;;6.50;;
20456;SDS011;10387;51.102;6.848;2023-10-13T14:25:14;14.93;;;6.83;;
20456;SDS011;10387;51.102;6.848;2023-10-13T14:27:41;15.67;;;6.83;;
20456;SDS011;10387;51.102;6.848;2023-10-13T14:30:07;13.67;;;6.90;;
20456;SDS011;10387;51.102;6.848;2023-10-13T14:32:34;13.43;;;6.83;;
20456;SDS011;10387;51.102;6.848;2023-10-13T14:35:05;11.90;;;6.50;;
20456;SDS011;10387;51.102;6.848;2023-10-13T14:37:40;11.27;;;6.53;;
20456;SDS011;10387;51.102;6.848;2023-10-13T14:40:06;11.97;;;6.70;;
20456;SDS011;10387;51.102;6.848;2023-10-13T14:42:38;14.63;;;7.30;;
20456;SDS011;10387;51.102;6.848;2023-10-13T14:45:08;10.43;;;6.43;;
20456;SDS011;10387;51.102;6.848;2023-10-13T14:47:42;11.90;;;6.47;;
20456;SDS011;10387;51.102;6.848;2023-10-13T14:50:09;10.90;;;6.77;;
20456;SDS011;10387;51.102;6.848;2023-10-13T14:52:46;15.13;;;6.40;;
20456;SDS011;10387;51.102;6.848;2023-10-13T14:55:13;12.13;;;6.87;;
20456;SDS011;10387;51.102;6.848;2023-10-13T14:57:47;14.17;;;6.53;;
20456;SDS011;10387;51.102;6.848;2023-10-13T15:00:14;13.30;;;7.17;;
20456;SDS011;10387;51.102;6.848;2023-10-13T15:02:48;14.60;;;6.97;;
20456;SDS011;10387;51.102;6.848;2023-10-13T15:05:20;12.87;;;7.00;;
20456;SDS011;10387;51.102;6.848;2023-10-13T15:07:56;14.63;;;6.60;;
20456;SDS011;10387;51.102;6.848;2023-10-13T15:10:30;9.80;;;6.33;;
20456;SDS011;10387;51.102;6.848;2023-10-13T15:12:57;11.97;;;6.43;;
20456;SDS011;10387;51.102;6.848;2023-10-13T15:15:27;13.67;;;6.67;;
20456;SDS011;10387;51.102;6.848;2023-10-13T15:18:01;10.20;;;6.10;;
20456;SDS011;10387;51.102;6.848;2023-10-13T15:20:27;10.23;;;6.60;;
20456;SDS011;10387;51.102;6.848;2023-10-13T15:22:53;12.60;;;6.77;;
20456;SDS011;10387;51.102;6.848;2023-10-13T15:25:25;14.50;;;6.90;;
20456;SDS011;10387;51.102;6.848;2023-10-13T15:28:00;12.70;;;6.43;;
20456;SDS011;10387;51.102;6.848;2023-10-13T15:30:35;12.07;;;6.73;;
20456;SDS011;10387;51.102;6.848;2023-10-13T15:33:17;9.40;;;6.07;;
20456;SDS011;10387;51.102;6.848;2023-10-13T15:35:45;15.23;;;7.00;;
20456;SDS011;10387;51.102;6.848;2023-10-13T15:38:11;12.63;;;6.57;;
20456;SDS011;10387;51.102;6.848;2023-10-13T15:40:46;9.97;;;6.50;;
20456;SDS011;10387;51.102;6.848;2023-10-13T15:43:12;11.97;;;6.97;;
20456;SDS011;10387;51.102;6.848;2023-10-13T15:45:59;12.13;;;6.67;;
20456;SDS011;10387;51.102;6.848;2023-10-13T15:48:30;12.17;;;6.77;;
20456;SDS011;10387;51.102;6.848;2023-10-13T15:51:02;8.80;;;6.23;;
20456;SDS011;10387;51.102;6.848;2023-10-13T15:53:31;9.77;;;6.90;;
20456;SDS011;10387;51.102;6.848;2023-10-13T15:56:02;10.27;;;6.40;;
20456;SDS011;10387;51.102;6.848;2023-10-13T15:58:31;13.80;;;6.37;;
20456;SDS011;10387;51.102;6.848;2023-10-13T16:00:57;9.47;;;6.33;;
20456;SDS011;10387;51.102;6.848;2023-10-13T16:03:26;17.80;;;7.17;;
20456;SDS011;10387;51.102;6.848;2023-10-13T16:05:57;11.63;;;6.63;;
20456;SDS011;10387;51.102;6.848;2023-10-13T16:08:28;10.33;;;5.93;;
20456;SDS011;10387;51.102;6.848;2023-10-13T16:11:06;10.23;;;6.70;;
20456;SDS011;10387;51.102;6.848;2023-10-13T16:13:34;10.60;;;6.10;;
20456;SDS011;10387;51.102;6.848;2023-10-13T16:16:02;9.77;;;6.70;;
20456;SDS011;10387;51.102;6.848;2023-10-13T16:18:28;12.13;;;7.07;;
20456;SDS011;10387;51.102;6.848;2023-10-13T16:21:01;11.77;;;6.53;;
20456;SDS011;10387;51.102;6.848;2023-10-13T16:23:29;10.40;;;6.20;;
20456;SDS011;10387;51.102;6.848;2023-10-13T16:25:57;10.63;;;6.57;;
20456;SDS011;10387;51.102;6.848;2023-10-13T16:28:40;9.57;;;6.47;;
20456;SDS011;10387;51.102;6.848;2023-10-13T16:31:10;12.93;;;7.33;;
20456;SDS011;10387;51.102;6.848;2023-10-13T16:33:37;10.87;;;6.57;;
20456;SDS011;10387;51.102;6.848;2023-10-13T16:36:13;9.57;;;6.03;;
20456;SDS011;10387;51.102;6.848;2023-10-13T16:38:42;9.37;;;5.97;;
20456;SDS011;10387;51.102;6.848;2023-10-13T16:41:10;9.97;;;5.77;;
20456;SDS011;10387;51.102;6.848;2023-10-13T16:43:46;8.83;;;6.03;;
20456;SDS011;10387;51.102;6.848;2023-10-13T16:46:17;10.00;;;6.30;;
20456;SDS011;10387;51.102;6.848;2023-10-13T16:48:44;10.70;;;5.93;;
20456;SDS011;10387;51.102;6.848;2023-10-13T16:51:16;10.40;;;6.13;;
20456;SDS011;10387;51.102;6.848;2023-10-13T16:53:54;12.60;;;5.87;;
20456;SDS011;10387;51.102;6.848;2023-10-13T16:56:24;13.13;;;6.50;;
20456;SDS011;10387;51.102;6.848;2023-10-13T16:58:52;9.30;;;5.93;;
20456;SDS011;10387;51.102;6.848;2023-10-13T17:01:24;9.57;;;5.80;;
20456;SDS011;10387;51.102;6.848;2023-10-13T17:03:53;13.00;;;6.60;;
20456;SDS011;10387;51.102;6.848;2023-10-13T17:06:24;12.17;;;6.53;;
20456;SDS011;10387;51.102;6.848;2023-10-13T17:08:53;8.70;;;5.70;;
20456;SDS011;10387;51.102;6.848;2023-10-13T17:11:19;12.27;;;6.67;;
20456;SDS011;10387;51.102;6.848;2023-10-13T17:13:47;13.97;;;7.00;;
20456;SDS011;10387;51.102;6.848;2023-10-13T17:16:19;9.60;;;5.83;;
20456;SDS011;10387;51.102;6.848;2023-10-13T17:18:58;12.03;;;6.53;;
20456;SDS011;10387;51.102;6.848;2023-10-13T17:21:40;8.67;;;5.80;;
20456;SDS011;10387;51.102;6.848;2023-10-13T17:24:14;8.40;;;6.23;;
20456;SDS011;10387;51.102;6.848;2023-10-13T17:29:40;8.37;;;6.40;;
20456;SDS011;10387;51.102;6.848;2023-10-13T17:32:27;14.27;;;6.17;;
20456;SDS011;10387;51.102;6.848;2023-10-13T17:34:56;10.57;;;6.40;;
20456;SDS011;10387;51.102;6.848;2023-10-13T17:37:30;10.17;;;6.53;;
20456;SDS011;10387;51.102;6.848;2023-10-13T17:40:04;8.63;;;5.60;;
20456;SDS011;10387;51.102;6.848;2023-10-13T17:42:37;8.80;;;6.30;;
20456;SDS011;10387;51.102;6.848;2023-10-13T17:45:07;9.77;;;6.30;;
20456;SDS011;10387;51.102;6.848;2023-10-13T17:47:36;9.53;;;6.70;;
20456;SDS011;10387;51.102;6.848;2023-10-13T17:50:05;10.37;;;6.00;;
20456;SDS011;10387;51.102;6.848;2023-10-13T17:52:36;8.80;;;6.10;;
20456;SDS011;10387;51.102;6.848;2023-10-13T17:55:03;10.70;;;6.03;;
20456;SDS011;10387;51.102;6.848;2023-10-13T17:57:36;9.67;;;5.37;;
20456;SDS011;10387;51.102;6.848;2023-10-13T18:00:13;9.60;;;5.67;;
20456;SDS011;10387;51.102;6.848;2023-10-13T18:02:51;13.03;;;5.97;;
20456;SDS011;10387;51.102;6.848;2023-10-13T18:05:19;10.87;;;6.57;;
20456;SDS011;10387;51.102;6.848;2023-10-13T18:07:46;9.57;;;6.07;;
20456;SDS011;10387;51.102;6.848;2023-10-13T18:10:17;8.73;;;6.13;;
20456;SDS011;10387;51.102;6.848;2023-10-13T18:12:44;6.93;;;5.23;;
20456;SDS011;10387;51.102;6.848;2023-10-13T18:15:12;8.93;;;5.67;;
20456;SDS011;10387;51.102;6.848;2023-10-13T18:18:30;11.20;;;5.80;;
20456;SDS011;10387;51.102;6.848;2023-10-13T18:21:02;9.43;;;5.90;;
20456;SDS011;10387;51.102;6.848;2023-10-13T18:23:37;10.50;;;5.77;;
20456;SDS011;10387;51.102;6.848;2023-10-13T18:26:05;13.93;;;6.50;;
20456;SDS011;10387;51.102;6.848;2023-10-13T18:28:32;10.03;;;5.43;;
20456;SDS011;10387;51.102;6.848;2023-10-13T18:31:01;9.43;;;5.50;;
20456;SDS011;10387;51.102;6.848;2023-10-13T18:33:37;11.07;;;6.17;;
20456;SDS011;10387;51.102;6.848;2023-10-13T18:36:10;10.60;;;5.60;;
20456;SDS011;10387;51.102;6.848;2023-10-13T18:38:46;9.60;;;6.00;;
20456;SDS011;10387;51.102;6.848;2023-10-13T18:41:13;6.70;;;5.40;;
20456;SDS011;10387;51.102;6.848;2023-10-13T18:43:46;10.07;;;5.60;;
20456;SDS011;10387;51.102;6.848;2023-10-13T18:46:21;11.17;;;6.70;;
20456;SDS011;10387;51.102;6.848;2023-10-13T18:48:50;10.20;;;6.53;;
20456;SDS011;10387;51.102;6.848;2023-10-13T18:51:19;11.27;;;5.77;;
20456;SDS011;10387;51.102;6.848;2023-10-13T18:53:48;10.67;;;6.23;;
20456;SDS011;10387;51.102;6.848;2023-10-13T18:56:15;9.13;;;5.87;;
20456;SDS011;10387;51.102;6.848;2023-10-13T18:58:43;8.73;;;5.97;;
20456;SDS011;10387;51.102;6.848;2023-10-13T19:01:13;9.57;;;6.30;;
20456;SDS011;10387;51.102;6.848;2023-10-13T19:03:43;9.73;;;5.97;;
20456;SDS011;10387;51.102;6.848;2023-10-13T19:06:10;10.47;;;6.40;;
20456;SDS011;10387;51.102;6.848;2023-10-13T19:08:36;9.40;;;6.00;;
20456;SDS011;10387;51.102;6.848;2023-10-13T19:11:06;9.80;;;5.63;;
20456;SDS011;10387;51.102;6.848;2023-10-13T19:13:39;8.50;;;6.33;;
20456;SDS011;10387;51.102;6.848;2023-10-13T19:16:07;8.60;;;5.87;;
20456;SDS011;10387;51.102;6.848;2023-10-13T19:18:34;12.43;;;6.63;;
20456;SDS011;10387;51.102;6.848;2023-10-13T19:21:02;12.10;;;6.00;;
20456;SDS011;10387;51.102;6.848;2023-10-13T19:23:40;10.10;;;6.37;;
20456;SDS011;10387;51.102;6.848;2023-10-13T19:26:10;13.80;;;6.27;;
20456;SDS011;10387;51.102;6.848;2023-10-13T19:28:37;11.87;;;6.00;;
20456;SDS011;10387;51.102;6.848;2023-10-13T19:31:06;11.23;;;6.27;;
20456;SDS011;10387;51.102;6.848;2023-10-13T19:33:32;11.60;;;6.07;;
20456;SDS011;10387;51.102;6.848;2023-10-13T19:36:00;10.87;;;6.27;;
20456;SDS011;10387;51.102;6.848;2023-10-13T19:38:29;11.40;;;5.93;;
20456;SDS011;10387;51.102;6.848;2023-10-13T19:40:55;10.73;;;6.27;;
20456;SDS011;10387;51.102;6.848;2023-10-13T19:43:24;9.80;;;6.47;;
20456;SDS011;10387;51.102;6.848;2023-10-13T19:45:51;10.83;;;6.30;;
20456;SDS011;10387;51.102;6.848;2023-10-13T19:48:17;10.67;;;6.40;;
20456;SDS011;10387;51.102;6.848;2023-10-13T19:50:43;11.60;;;6.97;;
20456;SDS011;10387;51.102;6.848;2023-10-13T19:53:11;9.60;;;6.30;;
20456;SDS011;10387;51.102;6.848;2023-10-13T19:55:38;12.33;;;7.03;;
20456;SDS011;10387;51.102;6.848;2023-10-13T19:58:05;12.63;;;7.43;;